Margarita — WDD7032 — position and weather

sailwx.info

Track history (hours):
 
Tides and Currents Weather Stations Pressure Air Temp Water Temp Dewpoint Dewpoint Depression Visibility Wind Speed Wind Dir Waves Ship Positions

Margarita

Owner: LAULETTA, JOHN F, NORTH PALM BEACH, FL. More information available from US FCC via Universal Licensing System and Coast Guard Vessel Documentation Center.

Last reported at 2018-Feb-10 19:17 UTC. Time now 2018-Feb-18 23:58 UTC.
Position N 25°49' W 080°07'.
Warning: this ship's position is 8 days out of date.

Length 22 m.

Type: Pleasure craft. MMSI: 367181030.

Date/timePositionNaut miles runAvg speedWind from/ knotsBaromVisibWave heightAir tempDewpointWater temp
2018-Feb-10 19:17N 25°49' W 080°07'0 0.0
2018-Feb-10 18:59N 25°49' W 080°07'0 0.0
2018-Feb-10 18:29N 25°49' W 080°07'0 0.0
2018-Feb-10 17:59N 25°49' W 080°07'0 0.0
2018-Feb-10 17:29N 25°49' W 080°07'0 0.0
2018-Feb-10 16:59N 25°49' W 080°07'0 0.0
2018-Feb-10 16:17N 25°49' W 080°07'0 0.0
2018-Feb-10 15:52N 25°49' W 080°07'1 2.1
2018-Feb-10 15:30N 25°50' W 080°07'2 3.9
2018-Feb-10 15:00N 25°52' W 080°09'2 4.6
2018-Feb-10 14:28N 25°54' W 080°08'4 7.9
2018-Feb-10 13:56N 25°58' W 080°07'3 6.2
2018-Feb-10 13:30N 26°01' W 080°07'3 4.7
2018-Feb-10 12:58N 26°03' W 080°07'1 1.5
2018-Feb-10 12:29N 26°03' W 080°08'  
Track history (hours):
 
Tides and Currents Weather Stations Pressure Air Temp Water Temp Dewpoint Dewpoint Depression Visibility Wind Speed Wind Dir Waves Ship Positions

Margarita

Owner: LAULETTA, JOHN F, NORTH PALM BEACH, FL. More information available from US FCC via Universal Licensing System and Coast Guard Vessel Documentation Center.

Last reported at 2018-Feb-10 19:17 UTC. Time now 2018-Feb-18 23:58 UTC.
Position N 25°49' W 080°07'.
Warning: this ship's position is 8 days out of date.

Length 22 m.

Type: Pleasure craft. MMSI: 367181030.

Date/timePositionNaut miles runAvg speedWind from/ knotsBaromVisibWave heightAir tempDewpointWater temp
2018-Feb-10 19:17N 25°49' W 080°07'0 0.0
2018-Feb-10 18:59N 25°49' W 080°07'0 0.0
2018-Feb-10 18:29N 25°49' W 080°07'0 0.0
2018-Feb-10 17:59N 25°49' W 080°07'0 0.0
2018-Feb-10 17:29N 25°49' W 080°07'0 0.0
2018-Feb-10 16:59N 25°49' W 080°07'0 0.0
2018-Feb-10 16:17N 25°49' W 080°07'0 0.0
2018-Feb-10 15:52N 25°49' W 080°07'1 2.1
2018-Feb-10 15:30N 25°50' W 080°07'2 3.9
2018-Feb-10 15:00N 25°52' W 080°09'2 4.6
2018-Feb-10 14:28N 25°54' W 080°08'4 7.9
2018-Feb-10 13:56N 25°58' W 080°07'3 6.2
2018-Feb-10 13:30N 26°01' W 080°07'3 4.7
2018-Feb-10 12:58N 26°03' W 080°07'1 1.5
2018-Feb-10 12:29N 26°03' W 080°08'  

Dump ship's entire track history